createdAt,value
2019-05-23T00:01:05.653Z,13.37
2019-05-23T00:03:36.529Z,13.53
2019-05-23T00:06:04.775Z,13.80
2019-05-23T00:08:32.247Z,13.59
2019-05-23T00:11:01.981Z,13.60
2019-05-23T00:13:44.606Z,13.79
2019-05-23T00:16:12.048Z,13.88
2019-05-23T00:18:39.534Z,13.89
2019-05-23T00:21:06.970Z,13.59
2019-05-23T00:23:34.421Z,13.46
2019-05-23T00:26:01.912Z,13.79
2019-05-23T00:28:29.962Z,13.95
2019-05-23T00:30:57.426Z,13.79
2019-05-23T00:33:25.696Z,13.63
2019-05-23T00:35:53.183Z,13.29
2019-05-23T00:38:21.082Z,13.49
2019-05-23T00:40:48.656Z,13.43
2019-05-23T00:43:16.216Z,13.30
2019-05-23T00:45:43.694Z,13.17
2019-05-23T00:48:11.118Z,13.25
2019-05-23T00:50:38.571Z,13.27
2019-05-23T00:53:06.086Z,13.18
2019-05-23T00:55:33.521Z,13.19
2019-05-23T00:58:00.980Z,13.20
2019-05-23T01:00:28.477Z,13.06
2019-05-23T01:02:55.941Z,12.98
2019-05-23T01:05:23.446Z,12.93
2019-05-23T01:07:50.869Z,12.92
2019-05-23T01:10:18.553Z,12.89
2019-05-23T01:12:45.858Z,12.97
2019-05-23T01:15:13.314Z,12.88
2019-05-23T01:17:40.750Z,12.80
2019-05-23T01:20:08.252Z,12.65
2019-05-23T01:22:35.706Z,12.74
2019-05-23T01:25:03.215Z,12.82
2019-05-23T01:27:31.234Z,12.95
2019-05-23T01:29:58.716Z,12.95
2019-05-23T01:32:29.553Z,12.99
2019-05-23T01:34:57.770Z,13.33
2019-05-23T01:37:25.470Z,13.17
2019-05-23T01:39:52.952Z,13.13
2019-05-23T01:42:20.417Z,13.44
2019-05-23T01:44:47.863Z,13.51
2019-05-23T01:47:16.184Z,13.77
2019-05-23T01:49:43.737Z,13.29
2019-05-23T01:52:11.195Z,13.21
2019-05-23T01:54:38.657Z,13.26
2019-05-23T01:57:06.126Z,13.26
2019-05-23T01:59:33.610Z,13.50
2019-05-23T02:02:01.992Z,13.70
2019-05-23T02:04:29.445Z,13.85
2019-05-23T02:06:57.038Z,13.84
2019-05-23T02:09:24.400Z,13.59
2019-05-23T02:11:51.874Z,13.55
2019-05-23T02:14:19.348Z,13.74
2019-05-23T02:16:46.794Z,13.65
2019-05-23T02:19:14.319Z,13.65
2019-05-23T02:21:41.763Z,13.03
2019-05-23T02:24:09.365Z,12.98
2019-05-23T02:26:36.721Z,13.23
2019-05-23T02:29:04.162Z,13.12
2019-05-23T02:31:32.506Z,12.96
2019-05-23T02:33:59.982Z,12.96
2019-05-23T02:36:27.428Z,12.95
2019-05-23T02:38:54.887Z,13.28
2019-05-23T02:41:25.211Z,13.43
2019-05-23T02:43:52.665Z,13.58
2019-05-23T02:46:23.551Z,13.51
2019-05-23T02:48:51.828Z,13.38
2019-05-23T02:51:24.705Z,13.40
2019-05-23T02:53:52.137Z,13.66
2019-05-23T02:56:20.673Z,13.78
2019-05-23T02:58:54.639Z,13.87
2019-05-23T03:01:26.613Z,13.93
2019-05-23T03:03:54.060Z,13.89
2019-05-23T03:06:21.496Z,13.76
2019-05-23T03:08:48.944Z,13.88
2019-05-23T03:11:31.964Z,13.88
2019-05-23T03:13:59.427Z,13.99
2019-05-23T03:16:26.888Z,13.96
2019-05-23T03:18:54.343Z,14.03
2019-05-23T03:21:21.789Z,14.06
2019-05-23T03:23:49.213Z,14.02
2019-05-23T03:26:20.927Z,13.94
2019-05-23T03:28:48.387Z,13.99
2019-05-23T03:31:29.695Z,13.96
2019-05-23T03:33:43.345Z,13.97
2019-05-23T03:36:10.805Z,13.89
2019-05-23T03:38:38.282Z,13.73
2019-05-23T03:41:05.719Z,13.36
2019-05-23T03:43:34.078Z,13.06
2019-05-23T03:46:01.981Z,13.45
2019-05-23T03:48:29.440Z,13.55
2019-05-23T03:50:56.892Z,13.48
2019-05-23T03:53:24.348Z,13.51
2019-05-23T03:55:51.808Z,13.27
2019-05-23T03:58:19.251Z,13.44
2019-05-23T04:00:48.684Z,13.49
2019-05-23T04:03:16.143Z,13.49
2019-05-23T04:05:43.639Z,13.52
2019-05-23T04:08:11.087Z,13.41
2019-05-23T04:10:38.567Z,13.08
2019-05-23T04:13:06.037Z,13.13
2019-05-23T04:15:33.502Z,12.99
2019-05-23T04:18:00.966Z,13.07
2019-05-23T04:20:28.444Z,13.08
2019-05-23T04:22:55.905Z,13.12
2019-05-23T04:25:23.381Z,13.35
2019-05-23T04:27:50.841Z,13.29
2019-05-23T04:30:18.290Z,13.52
2019-05-23T04:32:45.755Z,13.54
2019-05-23T04:35:13.220Z,13.62
2019-05-23T04:37:40.680Z,13.54
2019-05-23T04:40:08.131Z,13.64
2019-05-23T04:42:35.583Z,13.44
2019-05-23T04:45:03.017Z,13.21
2019-05-23T04:47:30.456Z,13.44
2019-05-23T04:49:57.928Z,13.47
2019-05-23T04:52:25.384Z,13.49
2019-05-23T04:54:52.823Z,13.36
2019-05-23T04:57:20.276Z,13.17
2019-05-23T04:59:47.750Z,13.48
2019-05-23T05:02:25.315Z,13.56
2019-05-23T05:04:42.780Z,13.71
2019-05-23T05:07:10.234Z,13.84
2019-05-23T05:09:37.687Z,13.74
2019-05-23T05:12:06.092Z,13.91
2019-05-23T05:14:33.579Z,13.93
2019-05-23T05:17:01.058Z,13.93
2019-05-23T05:19:28.521Z,14.05
2019-05-23T05:21:56.031Z,14.05
2019-05-23T05:24:23.500Z,14.09
2019-05-23T05:26:51.652Z,13.87
2019-05-23T05:29:19.167Z,14.08
2019-05-23T05:31:46.705Z,14.10
2019-05-23T05:34:14.165Z,14.07
2019-05-23T05:36:41.621Z,14.22
2019-05-23T05:39:09.051Z,14.20
2019-05-23T05:41:36.619Z,14.15
2019-05-23T05:44:04.451Z,14.24
2019-05-23T05:46:31.923Z,14.32
2019-05-23T05:48:59.405Z,14.25
2019-05-23T05:51:26.857Z,14.40
2019-05-23T05:53:54.325Z,14.39
2019-05-23T05:56:21.811Z,14.30
2019-05-23T05:58:49.283Z,14.50
2019-05-23T06:01:32.874Z,14.40
2019-05-23T06:03:44.215Z,14.57
2019-05-23T06:06:12.490Z,14.55
2019-05-23T06:08:40.286Z,14.70
2019-05-23T06:11:07.790Z,14.68
2019-05-23T06:13:36.375Z,14.75
2019-05-23T06:16:03.921Z,14.79
2019-05-23T06:18:31.381Z,14.64
2019-05-23T06:20:58.827Z,14.59
2019-05-23T06:23:26.305Z,14.68
2019-05-23T06:25:53.766Z,14.66
2019-05-23T06:28:21.294Z,14.70
2019-05-23T06:30:48.746Z,14.86
2019-05-23T06:33:23.337Z,14.70
2019-05-23T06:35:43.684Z,15.00
2019-05-23T06:38:11.147Z,15.03
2019-05-23T06:40:38.626Z,15.10
2019-05-23T06:43:06.098Z,15.32
2019-05-23T06:45:33.533Z,15.24
2019-05-23T06:48:01.130Z,15.31
2019-05-23T06:50:28.617Z,15.18
2019-05-23T06:52:56.110Z,15.33
2019-05-23T06:55:23.719Z,15.46
2019-05-23T06:57:51.202Z,15.59
2019-05-23T07:00:18.667Z,15.54
2019-05-23T07:02:46.129Z,15.47
2019-05-23T07:05:13.554Z,15.68
2019-05-23T07:07:41.011Z,15.75
2019-05-23T07:10:08.492Z,15.66
2019-05-23T07:12:35.948Z,15.92
2019-05-23T07:15:03.460Z,16.09
2019-05-23T07:17:30.909Z,16.05
2019-05-23T07:19:58.356Z,16.10
2019-05-23T07:22:25.826Z,16.01
2019-05-23T07:24:58.051Z,16.19
2019-05-23T07:27:20.823Z,16.18
2019-05-23T07:29:48.294Z,16.25
2019-05-23T07:32:15.787Z,16.28
2019-05-23T07:34:43.239Z,16.24
2019-05-23T07:37:10.716Z,16.36
2019-05-23T07:39:39.018Z,16.50
2019-05-23T07:42:06.509Z,16.50
2019-05-23T07:44:47.476Z,16.50
2019-05-23T07:47:01.934Z,16.45
2019-05-23T07:49:29.383Z,16.47
2019-05-23T07:51:57.466Z,16.59
2019-05-23T07:54:24.926Z,16.62
2019-05-23T07:56:52.390Z,16.75
2019-05-23T07:59:19.857Z,16.77
2019-05-23T08:01:47.352Z,16.73
2019-05-23T08:04:21.464Z,16.77
2019-05-23T08:06:42.369Z,16.81
2019-05-23T08:09:09.795Z,16.89
2019-05-23T08:11:37.252Z,16.93
2019-05-23T08:14:04.693Z,16.98
2019-05-23T08:16:33.203Z,16.99
2019-05-23T08:19:00.823Z,17.19
2019-05-23T08:21:28.251Z,17.21
2019-05-23T08:23:55.714Z,17.22
2019-05-23T08:26:23.230Z,17.21
2019-05-23T08:29:12.680Z,17.37
2019-05-23T08:31:18.191Z,17.46
2019-05-23T08:33:45.647Z,17.56
2019-05-23T08:36:13.110Z,17.48
2019-05-23T08:38:40.563Z,17.51
2019-05-23T08:41:08.030Z,17.50
2019-05-23T08:43:35.501Z,17.66
2019-05-23T08:46:03.021Z,17.69
2019-05-23T08:48:30.417Z,17.83
2019-05-23T08:50:57.909Z,17.69
2019-05-23T08:53:25.368Z,17.59
2019-05-23T08:55:52.826Z,17.78
2019-05-23T08:58:20.289Z,17.89
2019-05-23T09:00:47.754Z,18.01
2019-05-23T09:03:15.196Z,18.02
2019-05-23T09:05:42.704Z,17.94
2019-05-23T09:08:10.718Z,17.96
2019-05-23T09:10:38.138Z,17.98
2019-05-23T09:13:05.588Z,18.02
2019-05-23T09:15:33.039Z,18.04
2019-05-23T09:18:00.530Z,18.24
2019-05-23T09:20:29.656Z,18.41
2019-05-23T09:22:57.256Z,18.40
2019-05-23T09:25:24.684Z,18.28
2019-05-23T09:27:52.169Z,18.34
2019-05-23T09:30:19.650Z,18.10
2019-05-23T09:32:47.110Z,18.23
2019-05-23T09:35:20.871Z,18.35
2019-05-23T09:37:42.076Z,18.40
2019-05-23T09:40:09.529Z,18.70
2019-05-23T09:42:37.029Z,18.78
2019-05-23T09:45:05.193Z,18.71
2019-05-23T09:47:32.644Z,18.54
2019-05-23T09:50:00.106Z,18.74
2019-05-23T09:52:27.567Z,18.86
2019-05-23T09:54:55.913Z,18.89
2019-05-23T09:57:23.379Z,18.83
2019-05-23T09:59:50.827Z,18.82
2019-05-23T10:02:18.288Z,19.02
2019-05-23T10:04:45.821Z,18.95
2019-05-23T10:07:13.269Z,19.05
2019-05-23T10:09:40.736Z,18.99
2019-05-23T10:12:08.214Z,19.03
2019-05-23T10:14:38.027Z,19.13
2019-05-23T10:17:05.447Z,18.93
2019-05-23T10:19:32.897Z,19.07
2019-05-23T10:22:00.348Z,19.34
2019-05-23T10:24:27.804Z,19.19
2019-05-23T10:26:55.272Z,19.13
2019-05-23T10:29:22.737Z,19.49
2019-05-23T10:31:50.201Z,19.35
2019-05-23T10:34:17.646Z,19.63
2019-05-23T10:36:45.103Z,19.54
2019-05-23T10:39:12.544Z,19.45
2019-05-23T10:41:40.008Z,19.69
2019-05-23T10:44:07.467Z,19.58
2019-05-23T10:46:34.941Z,19.27
2019-05-23T10:49:02.434Z,19.32
2019-05-23T10:51:29.880Z,19.42
2019-05-23T10:53:57.335Z,19.42
2019-05-23T10:56:24.782Z,19.54
2019-05-23T10:58:52.215Z,19.82
2019-05-23T11:01:19.666Z,19.96
2019-05-23T11:03:47.178Z,19.94
2019-05-23T11:06:16.712Z,19.66
2019-05-23T11:08:42.981Z,19.53
2019-05-23T11:11:14.203Z,19.57
2019-05-23T11:13:37.964Z,19.85
2019-05-23T11:16:05.429Z,20.01
2019-05-23T11:18:32.863Z,19.93
2019-05-23T11:21:00.342Z,19.94
2019-05-23T11:23:27.797Z,20.28
2019-05-23T11:25:55.263Z,20.06
2019-05-23T11:28:22.726Z,20.05
2019-05-23T11:30:51.902Z,19.79
2019-05-23T11:33:19.330Z,20.10
2019-05-23T11:35:46.794Z,20.15
2019-05-23T11:38:14.217Z,20.24
2019-05-23T11:40:41.660Z,20.11
2019-05-23T11:43:09.140Z,20.18
2019-05-23T11:45:45.870Z,20.50
2019-05-23T11:48:06.448Z,20.69
2019-05-23T11:50:33.921Z,20.48
2019-05-23T11:53:01.363Z,20.19
2019-05-23T11:55:28.865Z,20.36
2019-05-23T11:57:56.300Z,20.38
2019-05-23T12:00:44.507Z,20.59
2019-05-23T12:03:11.952Z,20.64
2019-05-23T12:05:39.419Z,20.50
2019-05-23T12:08:06.890Z,20.26
2019-05-23T12:10:34.357Z,20.67
2019-05-23T12:13:01.857Z,20.59
2019-05-23T12:15:29.293Z,20.55
2019-05-23T12:17:56.824Z,20.30
2019-05-23T12:20:24.369Z,20.56
2019-05-23T12:22:51.912Z,20.54
2019-05-23T12:25:22.465Z,20.72
2019-05-23T12:27:47.142Z,20.98
2019-05-23T12:30:15.165Z,20.66
2019-05-23T12:32:42.659Z,20.68
2019-05-23T12:35:12.247Z,20.74
2019-05-23T12:37:39.598Z,21.04
2019-05-23T12:40:07.056Z,21.11
2019-05-23T12:42:34.529Z,21.01
2019-05-23T12:45:02.198Z,21.01
2019-05-23T12:47:29.478Z,20.91
2019-05-23T12:49:56.959Z,21.15
2019-05-23T12:52:24.428Z,21.14
2019-05-23T12:54:51.880Z,21.12
2019-05-23T12:57:19.354Z,21.41
2019-05-23T12:59:46.818Z,21.50
2019-05-23T13:02:14.292Z,20.80
2019-05-23T13:04:41.751Z,20.87
2019-05-23T13:07:09.230Z,20.81
2019-05-23T13:09:36.702Z,20.96
2019-05-23T13:12:04.628Z,20.86
2019-05-23T13:14:32.020Z,20.80
2019-05-23T13:17:00.975Z,20.87
2019-05-23T13:19:26.957Z,21.07
2019-05-23T13:21:54.413Z,20.93
2019-05-23T13:24:21.881Z,21.30
2019-05-23T13:26:50.597Z,21.19
2019-05-23T13:29:18.123Z,21.15
2019-05-23T13:31:46.265Z,21.16
2019-05-23T13:34:13.732Z,21.53
2019-05-23T13:36:41.198Z,21.55
2019-05-23T13:39:08.654Z,21.51
2019-05-23T13:41:36.091Z,21.43
2019-05-23T13:44:03.524Z,21.31
2019-05-23T13:46:30.977Z,21.55
2019-05-23T13:48:58.755Z,21.38
2019-05-23T13:51:25.923Z,21.63
2019-05-23T13:53:53.940Z,21.98
2019-05-23T13:56:21.694Z,21.91
2019-05-23T13:58:49.126Z,21.37
2019-05-23T14:01:16.860Z,21.86
2019-05-23T14:03:44.355Z,22.01
2019-05-23T14:06:11.812Z,22.16
2019-05-23T14:08:39.265Z,22.10
2019-05-23T14:11:06.739Z,21.83
2019-05-23T14:13:34.278Z,21.85
2019-05-23T14:16:01.712Z,21.99
2019-05-23T14:18:29.171Z,21.53
2019-05-23T14:20:56.618Z,21.86
2019-05-23T14:23:28.053Z,22.15
2019-05-23T14:25:55.503Z,21.74
2019-05-23T14:28:22.990Z,21.89
2019-05-23T14:30:51.801Z,22.05
2019-05-23T14:33:33.972Z,22.30
2019-05-23T14:36:01.744Z,21.90
2019-05-23T14:38:31.070Z,21.65
2019-05-23T14:40:56.696Z,22.03
2019-05-23T14:43:25.652Z,22.23
2019-05-23T14:45:54.866Z,21.95
2019-05-23T14:48:28.097Z,22.01
2019-05-23T14:50:57.697Z,22.58
2019-05-23T14:53:29.621Z,22.53
2019-05-23T14:55:57.100Z,22.59
2019-05-23T14:58:24.551Z,22.65
2019-05-23T15:00:52.019Z,22.52
2019-05-23T15:03:20.213Z,22.37
2019-05-23T15:05:47.963Z,22.42
2019-05-23T15:08:16.111Z,22.30
2019-05-23T15:10:43.578Z,22.46
2019-05-23T15:13:11.423Z,22.48
2019-05-23T15:15:38.882Z,22.51
2019-05-23T15:18:06.326Z,22.18
2019-05-23T15:20:33.773Z,22.59
2019-05-23T15:23:01.195Z,22.57
2019-05-23T15:25:28.641Z,22.38
2019-05-23T15:27:56.921Z,22.42
2019-05-23T15:30:24.377Z,22.51
2019-05-23T15:32:51.817Z,22.17
2019-05-23T15:35:19.253Z,22.95
2019-05-23T15:37:46.748Z,22.63
2019-05-23T15:40:14.154Z,23.02
2019-05-23T15:42:41.618Z,23.29
2019-05-23T15:45:09.087Z,23.08
2019-05-23T15:47:36.563Z,23.11
2019-05-23T15:50:10.869Z,22.74
2019-05-23T15:52:44.497Z,23.27
2019-05-23T15:55:13.881Z,23.37
2019-05-23T15:57:44.875Z,23.17
2019-05-23T16:00:30.149Z,23.49
2019-05-23T16:02:57.587Z,23.20
2019-05-23T16:05:25.037Z,23.53
2019-05-23T16:07:52.515Z,23.11
2019-05-23T16:10:19.975Z,23.19
2019-05-23T16:12:47.427Z,23.36
2019-05-23T16:15:14.864Z,23.41
2019-05-23T16:17:42.325Z,23.54
2019-05-23T16:20:09.752Z,23.70
2019-05-23T16:22:37.192Z,23.93
2019-05-23T16:25:04.672Z,23.98
2019-05-23T16:27:32.168Z,24.05
2019-05-23T16:29:59.594Z,23.80
2019-05-23T16:32:27.471Z,23.87
2019-05-23T16:34:54.914Z,24.07
2019-05-23T16:37:22.363Z,24.08
2019-05-23T16:39:50.307Z,23.91
2019-05-23T16:42:17.392Z,23.48
2019-05-23T16:44:44.846Z,23.94
2019-05-23T16:47:12.306Z,24.02
2019-05-23T16:49:41.558Z,23.38
2019-05-23T16:52:08.998Z,23.48
2019-05-23T16:54:36.487Z,23.22
2019-05-23T16:57:09.452Z,23.05
2019-05-23T16:59:53.573Z,23.33
2019-05-23T17:02:22.419Z,23.18
2019-05-23T17:05:09.434Z,23.19
2019-05-23T17:07:37.727Z,23.12
2019-05-23T17:10:09.323Z,22.88
2019-05-23T17:12:35.956Z,22.56
2019-05-23T17:15:03.407Z,22.86
2019-05-23T17:18:02.319Z,22.88
2019-05-23T17:20:20.712Z,22.68
2019-05-23T17:22:53.459Z,22.78
2019-05-23T17:25:21.862Z,22.88
2019-05-23T17:27:49.686Z,22.98
2019-05-23T17:30:32.939Z,22.93
2019-05-23T17:33:00.372Z,22.74
2019-05-23T17:35:28.349Z,22.61
2019-05-23T17:37:55.775Z,22.51
2019-05-23T17:40:25.282Z,22.46
2019-05-23T17:42:50.722Z,22.49
2019-05-23T17:45:18.166Z,22.63
2019-05-23T17:47:45.595Z,22.62
2019-05-23T17:50:13.063Z,22.58
2019-05-23T17:52:40.499Z,22.31
2019-05-23T17:55:07.963Z,22.63
2019-05-23T17:57:35.412Z,22.15
2019-05-23T18:00:02.884Z,22.54
2019-05-23T18:02:30.288Z,22.16
2019-05-23T18:04:57.749Z,22.28
2019-05-23T18:07:25.232Z,22.37
2019-05-23T18:09:52.744Z,22.11
2019-05-23T18:12:20.245Z,22.28
2019-05-23T18:14:47.735Z,21.99
2019-05-23T18:17:15.360Z,22.04
2019-05-23T18:19:42.805Z,22.13
2019-05-23T18:22:10.434Z,22.22
2019-05-23T18:24:38.124Z,22.31
2019-05-23T18:27:05.779Z,22.00
2019-05-23T18:29:33.302Z,22.11
2019-05-23T18:32:00.763Z,22.19
2019-05-23T18:34:28.345Z,22.08
2019-05-23T18:36:55.832Z,21.66
2019-05-23T18:39:23.402Z,21.65
2019-05-23T18:41:50.842Z,21.70
2019-05-23T18:44:18.318Z,21.63
2019-05-23T18:46:48.278Z,21.78
2019-05-23T18:49:15.834Z,21.53
2019-05-23T18:51:43.275Z,20.86
2019-05-23T18:54:10.846Z,21.05
2019-05-23T18:56:38.406Z,20.89
2019-05-23T18:59:05.880Z,20.78
2019-05-23T19:01:34.340Z,20.55
2019-05-23T19:04:01.909Z,20.94
2019-05-23T19:06:30.333Z,20.78
2019-05-23T19:08:57.942Z,20.62
2019-05-23T19:11:25.561Z,20.83
2019-05-23T19:13:53.053Z,20.50
2019-05-23T19:16:20.546Z,20.36
2019-05-23T19:18:47.975Z,20.25
2019-05-23T19:21:15.430Z,20.50
2019-05-23T19:23:42.857Z,20.38
2019-05-23T19:26:10.306Z,20.50
2019-05-23T19:28:37.731Z,20.12
2019-05-23T19:31:05.301Z,20.09
2019-05-23T19:33:32.730Z,19.92
2019-05-23T19:36:01.248Z,19.90
2019-05-23T19:38:29.798Z,20.15
2019-05-23T19:40:57.323Z,20.09
2019-05-23T19:43:24.950Z,19.88
2019-05-23T19:45:52.451Z,19.85
2019-05-23T19:48:19.910Z,19.95
2019-05-23T19:50:47.420Z,19.48
2019-05-23T19:53:14.881Z,19.63
2019-05-23T19:55:42.355Z,19.33
2019-05-23T19:58:09.925Z,19.02
2019-05-23T20:00:37.436Z,18.75
2019-05-23T20:03:04.888Z,18.60
2019-05-23T20:05:35.472Z,18.80
2019-05-23T20:08:03.032Z,18.70
2019-05-23T20:10:30.456Z,18.48
2019-05-23T20:12:58.514Z,18.58
2019-05-23T20:15:26.029Z,18.64
2019-05-23T20:17:53.488Z,18.61
2019-05-23T20:20:20.900Z,18.55
2019-05-23T20:22:48.357Z,18.44
2019-05-23T20:25:15.846Z,18.49
2019-05-23T20:27:43.331Z,18.54
2019-05-23T20:30:10.807Z,18.46
2019-05-23T20:32:38.254Z,18.29
2019-05-23T20:35:05.710Z,18.50
2019-05-23T20:37:35.375Z,18.37
2019-05-23T20:40:00.611Z,18.04
2019-05-23T20:42:28.068Z,18.18
2019-05-23T20:44:55.536Z,18.34
2019-05-23T20:47:22.959Z,18.16
2019-05-23T20:49:50.399Z,18.46
2019-05-23T20:52:17.815Z,18.15
2019-05-23T20:54:45.255Z,18.10
2019-05-23T20:57:13.611Z,18.15
2019-05-23T20:59:41.736Z,18.37
2019-05-23T21:02:09.279Z,18.28
2019-05-23T21:04:36.777Z,18.19
2019-05-23T21:07:05.123Z,18.20
2019-05-23T21:09:32.999Z,18.29
2019-05-23T21:12:00.461Z,17.82
2019-05-23T21:14:27.921Z,17.88
2019-05-23T21:16:55.358Z,17.77
2019-05-23T21:19:22.801Z,17.78
2019-05-23T21:21:50.256Z,17.60
2019-05-23T21:24:17.770Z,17.58
2019-05-23T21:26:45.490Z,17.28
2019-05-23T21:29:12.947Z,17.61
2019-05-23T21:31:40.432Z,17.42
2019-05-23T21:34:07.871Z,17.13
2019-05-23T21:36:35.329Z,17.04
2019-05-23T21:39:03.963Z,16.97
2019-05-23T21:41:31.532Z,16.80
2019-05-23T21:43:59.416Z,16.87
2019-05-23T21:46:26.833Z,17.03
2019-05-23T21:48:54.348Z,16.95
2019-05-23T21:51:21.897Z,17.13
2019-05-23T21:53:49.483Z,17.11
2019-05-23T21:56:17.051Z,16.94
2019-05-23T21:58:44.612Z,16.97
2019-05-23T22:01:26.946Z,16.73
2019-05-23T22:03:54.963Z,16.99
2019-05-23T22:06:22.456Z,16.96
2019-05-23T22:08:50.111Z,16.97
2019-05-23T22:11:17.599Z,16.97
2019-05-23T22:13:45.260Z,16.54
2019-05-23T22:16:12.701Z,16.82
2019-05-23T22:18:40.260Z,16.93
2019-05-23T22:21:07.748Z,16.79
2019-05-23T22:23:35.227Z,16.40
2019-05-23T22:26:02.711Z,16.59
2019-05-23T22:28:30.271Z,16.54
2019-05-23T22:30:57.723Z,16.61
2019-05-23T22:33:26.551Z,16.32
2019-05-23T22:35:53.991Z,16.28
2019-05-23T22:38:21.457Z,16.13
2019-05-23T22:40:49.508Z,16.05
2019-05-23T22:43:21.045Z,15.99
2019-05-23T22:45:44.663Z,16.27
2019-05-23T22:48:12.295Z,16.65
2019-05-23T22:50:39.726Z,16.76
2019-05-23T22:53:07.327Z,16.99
2019-05-23T22:55:35.520Z,17.09
2019-05-23T22:58:03.232Z,17.19
2019-05-23T23:00:33.102Z,16.74
2019-05-23T23:03:00.930Z,16.78
2019-05-23T23:05:28.354Z,16.52
2019-05-23T23:07:55.854Z,16.28
2019-05-23T23:10:23.375Z,15.99
2019-05-23T23:12:50.856Z,16.18
2019-05-23T23:15:18.337Z,16.34
2019-05-23T23:17:45.766Z,16.44
2019-05-23T23:20:13.210Z,16.49
2019-05-23T23:22:40.647Z,16.52
2019-05-23T23:25:08.255Z,16.46
2019-05-23T23:27:36.270Z,16.19
2019-05-23T23:30:03.742Z,16.44
2019-05-23T23:32:31.499Z,16.26
2019-05-23T23:34:58.957Z,16.10
2019-05-23T23:37:26.437Z,16.08
2019-05-23T23:39:53.897Z,16.03
2019-05-23T23:42:21.440Z,16.02
2019-05-23T23:44:48.584Z,16.05
2019-05-23T23:47:21.807Z,16.08
2019-05-23T23:49:54.841Z,16.13
2019-05-23T23:52:27.980Z,16.51
2019-05-23T23:55:01.335Z,16.71
2019-05-23T23:57:34.385Z,16.86
